createdAt,value
2023-01-31T00:02:09.253Z,76.74
2023-01-31T00:07:17.443Z,76.76
2023-01-31T00:12:24.813Z,76.62
2023-01-31T00:17:33.178Z,76.62
2023-01-31T00:22:41.397Z,76.48
2023-01-31T00:27:49.108Z,76.37
2023-01-31T00:32:56.415Z,76.24
2023-01-31T00:38:05.393Z,76.14
2023-01-31T00:43:13.847Z,76.00
2023-01-31T00:48:21.902Z,75.83
2023-01-31T00:53:30.296Z,75.68
2023-01-31T00:58:39.968Z,75.57
2023-01-31T01:03:49.152Z,75.46
2023-01-31T01:09:00.260Z,75.36
2023-01-31T01:14:08.560Z,75.25
2023-01-31T01:19:20.283Z,75.20
2023-01-31T01:24:29.518Z,75.13
2023-01-31T01:29:38.119Z,75.13
2023-01-31T01:34:46.890Z,75.12
2023-01-31T01:39:55.456Z,75.14
2023-01-31T01:45:06.430Z,75.14
2023-01-31T01:50:18.416Z,75.06
2023-01-31T01:55:32.215Z,75.10
2023-01-31T02:00:41.281Z,75.11
2023-01-31T02:05:53.177Z,75.06
2023-01-31T02:11:08.256Z,74.92
2023-01-31T02:16:16.422Z,74.93
2023-01-31T02:21:48.569Z,74.71
2023-01-31T02:27:08.734Z,74.56
2023-01-31T02:32:52.299Z,74.46
2023-01-31T02:38:09.901Z,74.30
2023-01-31T02:43:24.989Z,74.06
2023-01-31T02:48:44.450Z,74.00
2023-01-31T02:53:57.998Z,73.97
2023-01-31T03:04:47.325Z,73.94
2023-01-31T03:10:08.394Z,73.86
2023-01-31T03:15:54.355Z,73.80
2023-01-31T03:21:07.086Z,73.74
2023-01-31T03:26:16.645Z,73.61
2023-01-31T03:31:27.553Z,73.54
2023-01-31T03:36:43.483Z,73.34
2023-01-31T03:42:08.667Z,73.31
2023-01-31T03:47:19.496Z,73.32
2023-01-31T03:52:33.516Z,73.32
2023-01-31T03:57:46.934Z,73.21
2023-01-31T04:03:03.108Z,73.31
2023-01-31T04:08:12.284Z,73.33
2023-01-31T04:13:24.127Z,73.36
2023-01-31T04:18:32.023Z,73.39
2023-01-31T04:23:40.225Z,73.23
2023-01-31T04:28:48.968Z,73.11
2023-01-31T04:33:58.427Z,73.02
2023-01-31T04:39:06.750Z,73.05
2023-01-31T04:44:15.237Z,72.99
2023-01-31T04:49:23.553Z,72.95
2023-01-31T04:54:32.017Z,72.91
2023-01-31T04:59:40.139Z,72.96
2023-01-31T05:04:48.453Z,73.00
2023-01-31T05:09:56.592Z,73.01
2023-01-31T05:15:04.672Z,73.04
2023-01-31T05:20:13.947Z,73.05
2023-01-31T05:25:21.616Z,72.90
2023-01-31T05:30:30.007Z,72.83
2023-01-31T05:35:39.808Z,72.77
2023-01-31T05:40:48.048Z,72.80
2023-01-31T05:45:56.164Z,72.79
2023-01-31T05:51:04.457Z,72.74
2023-01-31T05:56:14.391Z,72.69
2023-01-31T06:01:24.362Z,72.67
2023-01-31T06:06:32.121Z,72.65
2023-01-31T06:11:40.263Z,72.68
2023-01-31T06:16:48.950Z,72.72
2023-01-31T06:21:56.442Z,72.79
2023-01-31T06:27:05.021Z,72.96
2023-01-31T06:32:13.012Z,73.23
2023-01-31T06:37:21.552Z,73.39
2023-01-31T06:42:29.054Z,73.43
2023-01-31T06:47:37.260Z,73.45
2023-01-31T06:52:44.783Z,73.47
2023-01-31T06:57:52.718Z,73.26
2023-01-31T07:03:00.230Z,73.19
2023-01-31T07:08:09.065Z,73.24
2023-01-31T07:13:17.140Z,73.09
2023-01-31T07:18:25.714Z,72.97
2023-01-31T07:23:34.279Z,72.86
2023-01-31T07:28:41.806Z,72.98
2023-01-31T07:33:50.399Z,73.01
2023-01-31T07:39:00.402Z,72.90
2023-01-31T07:44:09.089Z,72.83
2023-01-31T07:49:16.598Z,72.78
2023-01-31T07:54:24.946Z,72.71
2023-01-31T07:59:33.276Z,72.84
2023-01-31T08:04:41.409Z,72.79
2023-01-31T08:09:50.666Z,72.76
2023-01-31T08:14:59.136Z,72.75
2023-01-31T08:20:07.975Z,72.62
2023-01-31T08:25:20.748Z,72.37
2023-01-31T08:30:29.808Z,72.37
2023-01-31T08:35:38.047Z,72.31
2023-01-31T08:40:46.315Z,72.37
2023-01-31T08:45:54.436Z,72.33
2023-01-31T08:51:04.601Z,72.30
2023-01-31T08:56:14.577Z,72.20
2023-01-31T09:01:23.315Z,71.72
2023-01-31T09:06:31.187Z,71.73
2023-01-31T09:11:40.003Z,71.75
2023-01-31T09:16:48.522Z,71.47
2023-01-31T09:21:57.369Z,71.44
2023-01-31T09:27:06.889Z,71.13
2023-01-31T09:32:15.168Z,70.93
2023-01-31T09:37:23.224Z,70.82
2023-01-31T09:42:36.607Z,70.65
2023-01-31T09:47:49.667Z,70.38
2023-01-31T09:52:57.421Z,70.40
2023-01-31T09:58:09.729Z,70.36
2023-01-31T10:03:45.704Z,70.10
2023-01-31T10:09:00.755Z,69.61
2023-01-31T10:14:23.197Z,69.09
2023-01-31T10:19:31.458Z,68.62
2023-01-31T10:24:45.910Z,68.52
2023-01-31T10:29:57.129Z,68.53
2023-01-31T10:35:13.135Z,68.06
2023-01-31T10:40:24.627Z,68.10
2023-01-31T10:45:34.745Z,68.07
2023-01-31T10:50:58.484Z,67.70
2023-01-31T10:56:09.529Z,67.60
2023-01-31T11:01:18.955Z,67.30
2023-01-31T11:06:28.520Z,66.64
2023-01-31T11:11:55.556Z,66.34
2023-01-31T11:17:08.202Z,65.60
2023-01-31T11:22:27.416Z,65.23
2023-01-31T11:27:39.372Z,65.61
2023-01-31T11:32:48.184Z,65.28
2023-01-31T11:37:58.593Z,65.29
2023-01-31T11:43:07.599Z,65.14
2023-01-31T11:48:24.282Z,65.25
2023-01-31T11:53:40.702Z,65.01
2023-01-31T11:58:52.746Z,64.94
2023-01-31T12:04:04.888Z,64.89
2023-01-31T12:09:22.293Z,64.41
2023-01-31T12:14:41.580Z,64.72
2023-01-31T12:20:05.592Z,64.57
2023-01-31T12:25:31.229Z,64.44
2023-01-31T12:31:03.666Z,64.37
2023-01-31T12:36:30.979Z,64.14
2023-01-31T12:41:42.037Z,63.92
2023-01-31T12:47:11.078Z,63.40
2023-01-31T12:52:29.335Z,62.89
2023-01-31T12:57:51.218Z,62.70
2023-01-31T13:03:26.718Z,62.19
2023-01-31T13:08:37.889Z,62.20
2023-01-31T13:13:51.351Z,62.07
2023-01-31T13:19:03.059Z,62.15
2023-01-31T13:24:17.761Z,62.05
2023-01-31T13:29:32.076Z,62.11
2023-01-31T13:34:52.231Z,62.32
2023-01-31T13:40:05.566Z,62.29
2023-01-31T13:45:34.259Z,61.99
2023-01-31T13:50:46.715Z,62.20
2023-01-31T13:55:56.739Z,62.19
2023-01-31T14:01:07.864Z,62.22
2023-01-31T14:06:16.274Z,62.23
2023-01-31T14:11:47.227Z,62.24
2023-01-31T14:16:55.329Z,62.22
2023-01-31T14:22:16.329Z,62.26
2023-01-31T14:27:27.252Z,62.29
2023-01-31T14:32:40.992Z,62.33
2023-01-31T14:38:00.216Z,62.44
2023-01-31T14:43:38.005Z,62.51
2023-01-31T14:49:21.656Z,62.55
2023-01-31T14:54:43.157Z,62.50
2023-01-31T15:00:01.204Z,62.47
2023-01-31T15:05:16.586Z,62.34
2023-01-31T15:10:54.863Z,62.27
2023-01-31T15:16:03.380Z,62.23
2023-01-31T15:21:11.693Z,62.21
2023-01-31T15:26:21.325Z,62.25
2023-01-31T15:31:38.789Z,62.23
2023-01-31T15:36:55.227Z,62.25
2023-01-31T15:42:21.897Z,62.17
2023-01-31T15:47:32.537Z,62.11
2023-01-31T15:52:41.660Z,62.06
2023-01-31T15:57:57.329Z,62.00
2023-01-31T16:03:06.603Z,61.93
2023-01-31T16:08:26.700Z,61.91
2023-01-31T16:13:37.509Z,61.86
2023-01-31T16:18:50.236Z,61.78
2023-01-31T16:24:15.951Z,61.85
2023-01-31T16:29:29.482Z,62.05
2023-01-31T16:34:39.579Z,62.26
2023-01-31T16:39:51.130Z,62.50
2023-01-31T16:45:00.317Z,62.68
2023-01-31T16:50:43.310Z,62.88
2023-01-31T16:56:23.170Z,63.14
2023-01-31T17:01:34.513Z,63.32
2023-01-31T17:06:43.774Z,63.51
2023-01-31T17:11:52.557Z,63.65
2023-01-31T17:17:04.702Z,63.77
2023-01-31T17:22:17.579Z,63.84
2023-01-31T17:27:27.013Z,63.93
2023-01-31T17:32:36.302Z,63.96
2023-01-31T17:37:44.595Z,64.05
2023-01-31T17:42:56.313Z,64.09
2023-01-31T17:48:04.811Z,64.20
2023-01-31T17:53:15.830Z,64.29
2023-01-31T17:58:25.026Z,64.38
2023-01-31T18:03:35.087Z,64.51
2023-01-31T18:08:43.983Z,64.64
2023-01-31T18:13:52.301Z,64.79
2023-01-31T18:19:00.158Z,64.90
2023-01-31T18:24:09.499Z,65.00
2023-01-31T18:29:20.489Z,65.10
2023-01-31T18:34:29.728Z,65.19
2023-01-31T18:39:38.074Z,65.30
2023-01-31T18:44:47.284Z,65.50
2023-01-31T18:49:55.861Z,65.78
2023-01-31T18:55:03.949Z,66.05
2023-01-31T19:00:15.113Z,66.35
2023-01-31T19:05:26.318Z,66.64
2023-01-31T19:10:35.708Z,67.11
2023-01-31T19:15:44.589Z,67.63
2023-01-31T19:20:53.902Z,67.85
2023-01-31T19:26:03.720Z,68.06
2023-01-31T19:31:13.023Z,68.27
2023-01-31T19:36:22.680Z,68.57
2023-01-31T19:41:31.635Z,68.87
2023-01-31T19:46:39.552Z,69.18
2023-01-31T19:51:48.683Z,69.51
2023-01-31T19:56:57.206Z,69.78
2023-01-31T20:02:05.930Z,69.94
2023-01-31T20:07:13.617Z,70.14
2023-01-31T20:12:22.880Z,70.35
2023-01-31T20:17:31.709Z,70.50
2023-01-31T20:22:39.960Z,70.70
2023-01-31T20:27:47.259Z,70.89
2023-01-31T20:32:56.176Z,71.07
2023-01-31T20:38:04.506Z,71.22
2023-01-31T20:43:12.339Z,71.40
2023-01-31T20:48:21.118Z,71.56
2023-01-31T20:53:30.473Z,71.74
2023-01-31T20:58:39.806Z,71.96
2023-01-31T21:03:48.597Z,72.18
2023-01-31T21:08:56.960Z,72.35
2023-01-31T21:14:05.976Z,72.51
2023-01-31T21:19:13.340Z,72.70
2023-01-31T21:24:20.932Z,72.82
2023-01-31T21:29:28.433Z,72.92
2023-01-31T21:34:39.814Z,73.03
2023-01-31T21:39:55.169Z,73.19
2023-01-31T21:45:03.334Z,73.37
2023-01-31T21:50:13.003Z,73.60
2023-01-31T21:55:20.682Z,73.73
2023-01-31T22:00:28.421Z,73.90
2023-01-31T22:05:37.691Z,74.08
2023-01-31T22:10:46.024Z,74.33
2023-01-31T22:15:54.355Z,74.49
2023-01-31T22:21:10.234Z,74.75
2023-01-31T22:26:20.097Z,74.94
2023-01-31T22:31:28.975Z,75.04
2023-01-31T22:36:37.489Z,75.21
2023-01-31T22:41:46.597Z,75.29
2023-01-31T22:46:55.636Z,75.36
2023-01-31T22:52:03.961Z,75.48
2023-01-31T22:57:12.575Z,75.63
2023-01-31T23:02:21.029Z,75.73
2023-01-31T23:07:30.694Z,75.90
2023-01-31T23:12:43.105Z,76.09
2023-01-31T23:17:50.951Z,76.21
2023-01-31T23:23:00.720Z,76.36
2023-01-31T23:28:09.663Z,76.52
2023-01-31T23:33:18.401Z,76.65
2023-01-31T23:38:27.803Z,76.82
2023-01-31T23:43:36.461Z,76.88
2023-01-31T23:48:43.850Z,76.96
2023-01-31T23:53:52.157Z,77.04
2023-01-31T23:59:00.956Z,77.14
